Airfield :
LOGIN :

Register | Disclaimer

   EN    FR    IT 

 










Legend :    VFR   Marginal VFR   IFR   Intensive IFR   Very Intensive IFR
Visi :
Ceiling :
>= 8 km
>= 3000ft
5 to 8 km
1000 to 3000 ft
1500m to 5 km
500 to 1000 ft
800 to 1500m
200 to 500 ft
< 800m
< 200 ft
Symbols :   Thunderstorms  Fog  Heavy snow  Heavy precipitations  Wind > 20 kt
SIGMETs :     Misc.  Thunderstorms  Icing  Turbulence  Mountain Waves  Volcanic Ashes






- Airport Elevation : 556 ft


ESMV - Hasghult

CURRENT METAR :
  • 071420Z AUTO 20010KT 9999 OVC028/// 14/11 Q1012

EXPIRED METARs :
  • 071350Z AUTO 21013KT 170V230 9999 BKN029/// OVC040/// 14/12 Q1013
  • 071320Z AUTO 21013KT 9999 OVC029/// 14/11 Q1013
  • 071250Z AUTO 21014KT 9999 OVC029/// 14/12 Q1013
  • 071220Z AUTO 21014KT 180V240 9999 BKN028/// BKN056/// 15/12 Q1014
  • 071150Z AUTO 22014KT 180V240 9999 SCT025/// BKN054/// 15/12 Q1014

Expired Forecast.



MET'MAP, your aeronautical weather chart ! - Copyright ORBIFLY December 2007 - Disclaimer

ORBIFLY MET'MAP TEAM :

Programming & Development : Alexandra Zaïnal
Original concept : Baudouin d'Aumeries
Technical & hardware support : Manuel Goepfert
Assistance : Marc-Olivier Méhu




SOURCES & CREDITS :

   NOAA